sensor_id;sensor_type;location;lat;lon;timestamp;pressure;altitude;pressure_sealevel;temperature;humidity
37066;BME280;22981;43.080;25.550;2023-10-19T00:00:53;99683.78;;;6.99;63.66
37066;BME280;22981;43.080;25.550;2023-10-19T00:03:23;99678.45;;;6.99;63.69
37066;BME280;22981;43.080;25.550;2023-10-19T00:05:51;99682.14;;;6.98;63.60
37066;BME280;22981;43.080;25.550;2023-10-19T00:08:19;99678.27;;;6.90;63.78
37066;BME280;22981;43.080;25.550;2023-10-19T00:10:54;99674.59;;;6.91;63.82
37066;BME280;22981;43.080;25.550;2023-10-19T00:13:29;99666.91;;;6.92;63.79
37066;BME280;22981;43.080;25.550;2023-10-19T00:15:57;99668.89;;;6.94;63.78
37066;BME280;22981;43.080;25.550;2023-10-19T00:18:25;99656.78;;;6.92;63.82
37066;BME280;22981;43.080;25.550;2023-10-19T00:20:54;99655.95;;;6.91;63.85
37066;BME280;22981;43.080;25.550;2023-10-19T00:23:40;99657.48;;;6.90;63.92
37066;BME280;22981;43.080;25.550;2023-10-19T00:26:07;99656.16;;;6.90;63.87
37066;BME280;22981;43.080;25.550;2023-10-19T00:28:36;99649.44;;;6.94;63.88
37066;BME280;22981;43.080;25.550;2023-10-19T00:31:05;99651.15;;;6.91;63.83
37066;BME280;22981;43.080;25.550;2023-10-19T00:33:37;99650.70;;;6.87;63.68
37066;BME280;22981;43.080;25.550;2023-10-19T00:36:09;99645.57;;;6.75;63.71
37066;BME280;22981;43.080;25.550;2023-10-19T00:38:41;99645.32;;;6.70;63.89
37066;BME280;22981;43.080;25.550;2023-10-19T00:41:22;99639.12;;;6.73;63.79
37066;BME280;22981;43.080;25.550;2023-10-19T00:44:01;99634.17;;;6.70;63.68
37066;BME280;22981;43.080;25.550;2023-10-19T00:46:27;99631.06;;;6.67;63.72
37066;BME280;22981;43.080;25.550;2023-10-19T00:48:58;99631.27;;;6.65;63.69
37066;BME280;22981;43.080;25.550;2023-10-19T00:51:33;99639.04;;;6.67;63.66
37066;BME280;22981;43.080;25.550;2023-10-19T00:54:01;99631.88;;;6.67;63.64
37066;BME280;22981;43.080;25.550;2023-10-19T00:56:30;99638.87;;;6.68;63.57
37066;BME280;22981;43.080;25.550;2023-10-19T00:58:59;99632.70;;;6.68;63.58
37066;BME280;22981;43.080;25.550;2023-10-19T01:01:29;99632.53;;;6.69;63.55
37066;BME280;22981;43.080;25.550;2023-10-19T01:03:58;99633.55;;;6.68;63.61
37066;BME280;22981;43.080;25.550;2023-10-19T01:06:26;99628.03;;;6.70;63.61
37066;BME280;22981;43.080;25.550;2023-10-19T01:08:55;99629.48;;;6.62;63.61
37066;BME280;22981;43.080;25.550;2023-10-19T01:11:23;99627.25;;;6.55;63.64
37066;BME280;22981;43.080;25.550;2023-10-19T01:13:52;99628.02;;;6.48;63.66
37066;BME280;22981;43.080;25.550;2023-10-19T01:16:20;99634.22;;;6.45;63.58
37066;BME280;22981;43.080;25.550;2023-10-19T01:18:49;99626.36;;;6.37;63.66
37066;BME280;22981;43.080;25.550;2023-10-19T01:21:25;99634.70;;;6.34;63.58
37066;BME280;22981;43.080;25.550;2023-10-19T01:23:55;99630.91;;;6.32;63.61
37066;BME280;22981;43.080;25.550;2023-10-19T01:26:22;99630.55;;;6.35;63.50
37066;BME280;22981;43.080;25.550;2023-10-19T01:28:51;99625.53;;;6.36;63.47
37066;BME280;22981;43.080;25.550;2023-10-19T01:31:22;99626.36;;;6.37;63.49
37066;BME280;22981;43.080;25.550;2023-10-19T01:33:51;99624.91;;;6.34;63.50
37066;BME280;22981;43.080;25.550;2023-10-19T01:36:20;99621.75;;;6.35;63.41
37066;BME280;22981;43.080;25.550;2023-10-19T01:38:55;99623.25;;;6.33;63.39
37066;BME280;22981;43.080;25.550;2023-10-19T01:41:25;99631.56;;;6.34;63.38
37066;BME280;22981;43.080;25.550;2023-10-19T01:43:53;99626.55;;;6.35;63.33
37066;BME280;22981;43.080;25.550;2023-10-19T01:46:22;99622.31;;;6.30;63.39
37066;BME280;22981;43.080;25.550;2023-10-19T01:48:53;99596.06;;;6.16;63.37
37066;BME280;22981;43.080;25.550;2023-10-19T01:51:25;99626.30;;;6.30;63.27
37066;BME280;22981;43.080;25.550;2023-10-19T01:53:55;99626.87;;;6.25;63.23
37066;BME280;22981;43.080;25.550;2023-10-19T01:56:24;99628.42;;;6.20;63.29
37066;BME280;22981;43.080;25.550;2023-10-19T01:58:52;99633.22;;;6.10;63.41
37066;BME280;22981;43.080;25.550;2023-10-19T02:01:21;99623.31;;;6.03;63.68
37066;BME280;22981;43.080;25.550;2023-10-19T02:03:51;99625.30;;;6.06;63.74
37066;BME280;22981;43.080;25.550;2023-10-19T02:06:25;99618.14;;;6.06;63.83
37066;BME280;22981;43.080;25.550;2023-10-19T02:08:59;99615.13;;;6.09;63.76
37066;BME280;22981;43.080;25.550;2023-10-19T02:11:29;99613.40;;;6.12;63.75
37066;BME280;22981;43.080;25.550;2023-10-19T02:13:58;99605.00;;;6.09;63.77
37066;BME280;22981;43.080;25.550;2023-10-19T02:16:27;99604.66;;;6.08;63.86
37066;BME280;22981;43.080;25.550;2023-10-19T02:18:58;99609.20;;;6.03;63.84
37066;BME280;22981;43.080;25.550;2023-10-19T02:21:27;99606.03;;;5.93;63.99
37066;BME280;22981;43.080;25.550;2023-10-19T02:23:59;99608.69;;;5.93;63.99
37066;BME280;22981;43.080;25.550;2023-10-19T02:26:26;99608.18;;;5.93;64.05
37066;BME280;22981;43.080;25.550;2023-10-19T02:28:54;99607.81;;;5.96;64.11
37066;BME280;22981;43.080;25.550;2023-10-19T02:31:23;99612.87;;;6.02;64.11
37066;BME280;22981;43.080;25.550;2023-10-19T02:33:52;99608.85;;;5.91;64.13
37066;BME280;22981;43.080;25.550;2023-10-19T02:36:31;99601.25;;;5.88;64.26
37066;BME280;22981;43.080;25.550;2023-10-19T02:39:04;99605.55;;;5.89;64.23
37066;BME280;22981;43.080;25.550;2023-10-19T02:41:39;99608.08;;;5.87;64.05
37066;BME280;22981;43.080;25.550;2023-10-19T02:44:10;99601.70;;;5.77;64.18
37066;BME280;22981;43.080;25.550;2023-10-19T02:46:39;99601.91;;;5.75;64.17
37066;BME280;22981;43.080;25.550;2023-10-19T02:49:09;99599.55;;;5.76;64.11
37066;BME280;22981;43.080;25.550;2023-10-19T02:51:39;99604.05;;;5.76;64.16
37066;BME280;22981;43.080;25.550;2023-10-19T02:54:08;99606.39;;;5.75;64.18
37066;BME280;22981;43.080;25.550;2023-10-19T02:56:37;99606.80;;;5.68;64.20
37066;BME280;22981;43.080;25.550;2023-10-19T02:59:05;99604.15;;;5.68;64.22
37066;BME280;22981;43.080;25.550;2023-10-19T03:01:35;99604.80;;;5.70;64.20
37066;BME280;22981;43.080;25.550;2023-10-19T03:04:03;99602.31;;;5.68;64.12
37066;BME280;22981;43.080;25.550;2023-10-19T03:06:33;99601.49;;;5.68;64.18
37066;BME280;22981;43.080;25.550;2023-10-19T03:09:05;99599.66;;;5.68;64.15
37066;BME280;22981;43.080;25.550;2023-10-19T03:11:44;99598.64;;;5.69;64.13
37066;BME280;22981;43.080;25.550;2023-10-19T03:14:12;99609.70;;;5.62;64.16
37066;BME280;22981;43.080;25.550;2023-10-19T03:16:40;99605.20;;;5.63;64.31
37066;BME280;22981;43.080;25.550;2023-10-19T03:19:08;99606.27;;;5.58;64.32
37066;BME280;22981;43.080;25.550;2023-10-19T03:21:36;99598.75;;;5.46;64.42
37066;BME280;22981;43.080;25.550;2023-10-19T03:24:11;99601.64;;;5.41;64.47
37066;BME280;22981;43.080;25.550;2023-10-19T03:26:52;99600.67;;;5.38;64.48
37066;BME280;22981;43.080;25.550;2023-10-19T03:29:21;99600.72;;;5.34;64.45
37066;BME280;22981;43.080;25.550;2023-10-19T03:31:58;99602.28;;;5.28;64.40
37066;BME280;22981;43.080;25.550;2023-10-19T03:34:26;99604.63;;;5.27;64.46
37066;BME280;22981;43.080;25.550;2023-10-19T03:36:55;99597.64;;;5.26;64.36
37066;BME280;22981;43.080;25.550;2023-10-19T03:39:23;99595.88;;;5.22;64.40
37066;BME280;22981;43.080;25.550;2023-10-19T03:41:50;99595.69;;;5.24;64.45
37066;BME280;22981;43.080;25.550;2023-10-19T03:44:19;99587.77;;;5.20;64.48
37066;BME280;22981;43.080;25.550;2023-10-19T03:46:48;99582.95;;;5.19;64.48
37066;BME280;22981;43.080;25.550;2023-10-19T03:49:26;99580.86;;;5.15;64.53
37066;BME280;22981;43.080;25.550;2023-10-19T03:52:04;99582.22;;;5.11;64.61
37066;BME280;22981;43.080;25.550;2023-10-19T03:54:37;99582.38;;;5.09;64.67
37066;BME280;22981;43.080;25.550;2023-10-19T03:57:08;99582.84;;;5.13;64.64
37066;BME280;22981;43.080;25.550;2023-10-19T03:59:39;99576.68;;;5.16;64.54
37066;BME280;22981;43.080;25.550;2023-10-19T04:02:08;99573.71;;;5.15;64.54
37066;BME280;22981;43.080;25.550;2023-10-19T04:04:48;99564.70;;;5.20;64.54
37066;BME280;22981;43.080;25.550;2023-10-19T04:07:17;99565.83;;;5.22;64.40
37066;BME280;22981;43.080;25.550;2023-10-19T04:09:52;99564.15;;;5.25;64.40
37066;BME280;22981;43.080;25.550;2023-10-19T04:12:17;99562.81;;;5.25;64.36
37066;BME280;22981;43.080;25.550;2023-10-19T04:14:45;99566.72;;;5.18;64.34
37066;BME280;22981;43.080;25.550;2023-10-19T04:17:14;99561.45;;;5.14;64.43
37066;BME280;22981;43.080;25.550;2023-10-19T04:19:43;99567.08;;;5.15;64.43
37066;BME280;22981;43.080;25.550;2023-10-19T04:22:11;99559.94;;;5.16;64.48
37066;BME280;22981;43.080;25.550;2023-10-19T04:24:40;99558.77;;;5.18;64.34
37066;BME280;22981;43.080;25.550;2023-10-19T04:27:07;99560.95;;;5.15;64.31
37066;BME280;22981;43.080;25.550;2023-10-19T04:29:35;99559.52;;;5.08;64.38
37066;BME280;22981;43.080;25.550;2023-10-19T04:32:04;99556.94;;;5.00;64.44
37066;BME280;22981;43.080;25.550;2023-10-19T04:34:33;99557.95;;;4.99;64.46
37066;BME280;22981;43.080;25.550;2023-10-19T04:37:02;99555.30;;;4.99;64.44
37066;BME280;22981;43.080;25.550;2023-10-19T04:39:30;99556.43;;;5.00;64.38
37066;BME280;22981;43.080;25.550;2023-10-19T04:41:57;99552.80;;;5.01;64.47
37066;BME280;22981;43.080;25.550;2023-10-19T04:44:25;99548.44;;;5.05;64.61
37066;BME280;22981;43.080;25.550;2023-10-19T04:46:52;99553.19;;;5.09;64.75
37066;BME280;22981;43.080;25.550;2023-10-19T04:49:20;99555.41;;;5.20;64.87
37066;BME280;22981;43.080;25.550;2023-10-19T04:51:48;99560.48;;;5.26;64.81
37066;BME280;22981;43.080;25.550;2023-10-19T04:54:16;99558.84;;;5.25;64.81
37066;BME280;22981;43.080;25.550;2023-10-19T04:56:43;99564.61;;;5.28;64.82
37066;BME280;22981;43.080;25.550;2023-10-19T04:59:11;99562.27;;;5.30;64.70
37066;BME280;22981;43.080;25.550;2023-10-19T05:01:38;99564.03;;;5.22;64.70
37066;BME280;22981;43.080;25.550;2023-10-19T05:04:07;99568.41;;;5.15;64.57
37066;BME280;22981;43.080;25.550;2023-10-19T05:06:34;99571.61;;;5.11;64.78
37066;BME280;22981;43.080;25.550;2023-10-19T05:09:02;99564.73;;;5.01;64.73
37066;BME280;22981;43.080;25.550;2023-10-19T05:11:30;99566.56;;;4.82;65.08
37066;BME280;22981;43.080;25.550;2023-10-19T05:13:57;99565.59;;;4.79;65.20
37066;BME280;22981;43.080;25.550;2023-10-19T05:16:25;99570.55;;;4.82;65.24
37066;BME280;22981;43.080;25.550;2023-10-19T05:18:53;99573.86;;;4.84;65.23
37066;BME280;22981;43.080;25.550;2023-10-19T05:21:20;99575.63;;;4.88;65.20
37066;BME280;22981;43.080;25.550;2023-10-19T05:23:48;99573.95;;;4.91;65.21
37066;BME280;22981;43.080;25.550;2023-10-19T05:26:15;99570.24;;;4.96;65.17
37066;BME280;22981;43.080;25.550;2023-10-19T05:28:43;99572.23;;;4.98;65.20
37066;BME280;22981;43.080;25.550;2023-10-19T05:31:11;99572.94;;;4.92;65.37
37066;BME280;22981;43.080;25.550;2023-10-19T05:33:38;99562.86;;;4.87;65.62
37066;BME280;22981;43.080;25.550;2023-10-19T05:36:06;99561.81;;;4.92;65.65
37066;BME280;22981;43.080;25.550;2023-10-19T05:38:34;99564.58;;;4.99;65.60
37066;BME280;22981;43.080;25.550;2023-10-19T05:41:01;99563.53;;;5.04;65.58
37066;BME280;22981;43.080;25.550;2023-10-19T05:43:29;99561.45;;;5.14;65.55
37066;BME280;22981;43.080;25.550;2023-10-19T05:45:57;99565.16;;;5.24;65.47
37066;BME280;22981;43.080;25.550;2023-10-19T05:48:24;99560.48;;;5.26;65.47
37066;BME280;22981;43.080;25.550;2023-10-19T05:50:52;99558.24;;;5.34;65.63
37066;BME280;22981;43.080;25.550;2023-10-19T05:53:20;99561.07;;;5.47;65.68
37066;BME280;22981;43.080;25.550;2023-10-19T05:55:49;99552.34;;;5.57;65.66
37066;BME280;22981;43.080;25.550;2023-10-19T05:58:16;99557.81;;;5.70;65.67
37066;BME280;22981;43.080;25.550;2023-10-19T06:00:44;99553.02;;;5.81;65.66
37066;BME280;22981;43.080;25.550;2023-10-19T06:03:12;99561.70;;;5.89;65.66
37066;BME280;22981;43.080;25.550;2023-10-19T06:05:40;99556.16;;;5.95;65.64
37066;BME280;22981;43.080;25.550;2023-10-19T06:08:09;99556.00;;;5.96;65.77
37066;BME280;22981;43.080;25.550;2023-10-19T06:10:37;99547.77;;;6.02;65.92
37066;BME280;22981;43.080;25.550;2023-10-19T06:13:05;99549.95;;;6.13;65.88
37066;BME280;22981;43.080;25.550;2023-10-19T06:15:35;99551.33;;;6.20;66.01
37066;BME280;22981;43.080;25.550;2023-10-19T06:18:03;99549.20;;;6.30;66.07
37066;BME280;22981;43.080;25.550;2023-10-19T06:20:30;99553.48;;;6.42;65.99
37066;BME280;22981;43.080;25.550;2023-10-19T06:22:59;99554.62;;;6.54;65.95
37066;BME280;22981;43.080;25.550;2023-10-19T06:25:34;99546.58;;;6.69;65.83
37066;BME280;22981;43.080;25.550;2023-10-19T06:28:02;99549.27;;;6.86;65.72
37066;BME280;22981;43.080;25.550;2023-10-19T06:30:30;99547.20;;;6.99;65.62
37066;BME280;22981;43.080;25.550;2023-10-19T06:35:34;99554.84;;;7.26;65.46
37066;BME280;22981;43.080;25.550;2023-10-19T06:38:03;99540.72;;;7.25;65.37
37066;BME280;22981;43.080;25.550;2023-10-19T06:40:33;99546.72;;;7.41;65.43
37066;BME280;22981;43.080;25.550;2023-10-19T06:43:00;99546.69;;;7.51;65.45
37066;BME280;22981;43.080;25.550;2023-10-19T06:45:29;99549.20;;;7.66;65.42
37066;BME280;22981;43.080;25.550;2023-10-19T06:47:57;99543.95;;;7.80;65.43
37066;BME280;22981;43.080;25.550;2023-10-19T06:50:26;99548.30;;;7.94;65.44
37066;BME280;22981;43.080;25.550;2023-10-19T06:52:53;99543.94;;;8.10;65.40
37066;BME280;22981;43.080;25.550;2023-10-19T06:55:21;99540.98;;;8.29;65.31
37066;BME280;22981;43.080;25.550;2023-10-19T06:57:55;99539.09;;;8.47;65.27
37066;BME280;22981;43.080;25.550;2023-10-19T07:00:24;99538.47;;;8.65;65.19
37066;BME280;22981;43.080;25.550;2023-10-19T07:02:55;99535.10;;;8.80;65.20
37066;BME280;22981;43.080;25.550;2023-10-19T07:05:23;99528.30;;;8.97;65.11
37066;BME280;22981;43.080;25.550;2023-10-19T07:07:57;99530.24;;;9.13;65.06
37066;BME280;22981;43.080;25.550;2023-10-19T07:10:25;99527.95;;;9.30;65.05
37066;BME280;22981;43.080;25.550;2023-10-19T07:12:56;99522.00;;;9.50;65.01
37066;BME280;22981;43.080;25.550;2023-10-19T07:15:24;99518.52;;;9.72;64.87
37066;BME280;22981;43.080;25.550;2023-10-19T07:17:53;99520.39;;;9.94;64.68
37066;BME280;22981;43.080;25.550;2023-10-19T07:20:21;99517.39;;;10.15;64.53
37066;BME280;22981;43.080;25.550;2023-10-19T07:22:56;99505.23;;;10.35;64.39
37066;BME280;22981;43.080;25.550;2023-10-19T07:25:25;99506.72;;;10.56;64.25
37066;BME280;22981;43.080;25.550;2023-10-19T07:27:53;99498.06;;;10.79;64.27
37066;BME280;22981;43.080;25.550;2023-10-19T07:30:21;99492.82;;;11.00;64.20
37066;BME280;22981;43.080;25.550;2023-10-19T07:32:52;99492.19;;;11.23;64.06
37066;BME280;22981;43.080;25.550;2023-10-19T07:35:24;99486.42;;;11.47;64.01
37066;BME280;22981;43.080;25.550;2023-10-19T07:37:54;99484.78;;;11.73;63.74
37066;BME280;22981;43.080;25.550;2023-10-19T07:40:23;99485.78;;;12.00;63.46
37066;BME280;22981;43.080;25.550;2023-10-19T07:42:52;99478.31;;;12.23;63.13
37066;BME280;22981;43.080;25.550;2023-10-19T07:45:21;99478.20;;;12.50;62.92
37066;BME280;22981;43.080;25.550;2023-10-19T07:47:49;99473.76;;;12.79;62.69
37066;BME280;22981;43.080;25.550;2023-10-19T07:50:17;99468.92;;;13.02;62.55
37066;BME280;22981;43.080;25.550;2023-10-19T07:52:47;99472.63;;;13.37;62.24
37066;BME280;22981;43.080;25.550;2023-10-19T07:55:17;99466.08;;;13.73;61.69
37066;BME280;22981;43.080;25.550;2023-10-19T07:57:45;99466.22;;;14.09;61.37
37066;BME280;22981;43.080;25.550;2023-10-19T08:00:13;99461.25;;;14.49;60.71
37066;BME280;22981;43.080;25.550;2023-10-19T08:02:40;99453.35;;;14.78;59.96
37066;BME280;22981;43.080;25.550;2023-10-19T08:05:15;99449.55;;;14.96;59.51
37066;BME280;22981;43.080;25.550;2023-10-19T08:07:45;99452.33;;;15.23;58.81
37066;BME280;22981;43.080;25.550;2023-10-19T08:10:16;99446.17;;;15.50;57.84
37066;BME280;22981;43.080;25.550;2023-10-19T08:12:45;99439.42;;;15.69;56.95
37066;BME280;22981;43.080;25.550;2023-10-19T08:15:17;99439.02;;;15.83;56.68
37066;BME280;22981;43.080;25.550;2023-10-19T08:17:48;99439.99;;;15.98;55.98
37066;BME280;22981;43.080;25.550;2023-10-19T08:20:17;99445.02;;;16.17;55.53
37066;BME280;22981;43.080;25.550;2023-10-19T08:22:52;99430.09;;;16.44;54.81
37066;BME280;22981;43.080;25.550;2023-10-19T08:25:20;99429.73;;;16.70;54.08
37066;BME280;22981;43.080;25.550;2023-10-19T08:27:48;99434.03;;;17.00;53.13
37066;BME280;22981;43.080;25.550;2023-10-19T08:30:21;99431.15;;;17.25;52.43
37066;BME280;22981;43.080;25.550;2023-10-19T08:32:50;99425.86;;;17.53;51.77
37066;BME280;22981;43.080;25.550;2023-10-19T08:35:19;99427.59;;;17.82;51.08
37066;BME280;22981;43.080;25.550;2023-10-19T08:37:49;99426.53;;;18.09;50.19
37066;BME280;22981;43.080;25.550;2023-10-19T08:40:17;99423.56;;;18.25;49.46
37066;BME280;22981;43.080;25.550;2023-10-19T08:42:45;99422.73;;;18.40;49.12
37066;BME280;22981;43.080;25.550;2023-10-19T08:45:13;99427.86;;;18.62;48.69
37066;BME280;22981;43.080;25.550;2023-10-19T08:47:56;99422.44;;;18.83;48.06
37066;BME280;22981;43.080;25.550;2023-10-19T08:50:25;99417.23;;;19.04;47.81
37066;BME280;22981;43.080;25.550;2023-10-19T08:52:54;99419.33;;;19.28;47.04
37066;BME280;22981;43.080;25.550;2023-10-19T08:55:22;99419.33;;;19.28;46.42
37066;BME280;22981;43.080;25.550;2023-10-19T08:57:50;99416.09;;;19.20;46.34
37066;BME280;22981;43.080;25.550;2023-10-19T09:00:19;99411.73;;;19.24;46.44
37066;BME280;22981;43.080;25.550;2023-10-19T09:02:48;99414.91;;;19.44;45.82
37066;BME280;22981;43.080;25.550;2023-10-19T09:05:16;99401.53;;;19.56;45.41
37066;BME280;22981;43.080;25.550;2023-10-19T09:07:50;99399.87;;;19.65;45.15
37066;BME280;22981;43.080;25.550;2023-10-19T09:10:19;99394.69;;;19.71;44.92
37066;BME280;22981;43.080;25.550;2023-10-19T09:12:59;99381.80;;;19.87;44.47
37066;BME280;22981;43.080;25.550;2023-10-19T09:15:28;99380.59;;;20.06;43.90
37066;BME280;22981;43.080;25.550;2023-10-19T09:18:19;99371.83;;;20.11;43.63
37066;BME280;22981;43.080;25.550;2023-10-19T09:20:50;99369.56;;;20.23;43.29
37066;BME280;22981;43.080;25.550;2023-10-19T09:23:36;99368.94;;;20.34;42.97
37066;BME280;22981;43.080;25.550;2023-10-19T09:26:05;99363.94;;;20.44;42.81
37066;BME280;22981;43.080;25.550;2023-10-19T09:28:35;99360.97;;;20.43;42.32
37066;BME280;22981;43.080;25.550;2023-10-19T09:31:04;99355.84;;;20.39;42.15
37066;BME280;22981;43.080;25.550;2023-10-19T09:33:33;99357.20;;;20.36;42.08
37066;BME280;22981;43.080;25.550;2023-10-19T09:36:03;99347.94;;;20.40;42.26
37066;BME280;22981;43.080;25.550;2023-10-19T09:38:35;99336.15;;;20.47;42.41
37066;BME280;22981;43.080;25.550;2023-10-19T09:41:02;99334.23;;;20.53;42.05
37066;BME280;22981;43.080;25.550;2023-10-19T09:43:41;99333.88;;;20.59;41.75
37066;BME280;22981;43.080;25.550;2023-10-19T09:46:08;99328.99;;;20.59;41.62
37066;BME280;22981;43.080;25.550;2023-10-19T09:48:45;99339.56;;;20.63;41.30
37066;BME280;22981;43.080;25.550;2023-10-19T09:51:12;99326.52;;;20.62;41.21
37066;BME280;22981;43.080;25.550;2023-10-19T09:53:40;99326.20;;;20.66;41.14
37066;BME280;22981;43.080;25.550;2023-10-19T09:56:11;99322.10;;;20.69;41.10
37066;BME280;22981;43.080;25.550;2023-10-19T10:01:10;99321.41;;;20.80;40.74
37066;BME280;22981;43.080;25.550;2023-10-19T10:03:49;99305.88;;;20.83;40.69
37066;BME280;22981;43.080;25.550;2023-10-19T10:06:15;99323.27;;;20.84;40.67
37066;BME280;22981;43.080;25.550;2023-10-19T10:08:45;99318.03;;;20.90;40.37
37066;BME280;22981;43.080;25.550;2023-10-19T10:11:19;99308.51;;;20.90;40.47
37066;BME280;22981;43.080;25.550;2023-10-19T10:13:48;99296.77;;;20.92;40.19
37066;BME280;22981;43.080;25.550;2023-10-19T10:16:23;99299.17;;;20.96;40.11
37066;BME280;22981;43.080;25.550;2023-10-19T10:18:50;99292.29;;;21.01;39.74
37066;BME280;22981;43.080;25.550;2023-10-19T10:21:22;99292.27;;;21.04;39.67
37066;BME280;22981;43.080;25.550;2023-10-19T10:23:55;99300.28;;;21.14;39.53
37066;BME280;22981;43.080;25.550;2023-10-19T10:26:24;99287.69;;;21.21;38.95
37066;BME280;22981;43.080;25.550;2023-10-19T10:29:12;99291.56;;;21.15;39.15
37066;BME280;22981;43.080;25.550;2023-10-19T10:31:46;99292.38;;;20.94;39.04
37066;BME280;22981;43.080;25.550;2023-10-19T10:37:10;99284.34;;;20.86;39.19
37066;BME280;22981;43.080;25.550;2023-10-19T10:39:40;99279.08;;;20.92;39.04
37066;BME280;22981;43.080;25.550;2023-10-19T10:42:09;99267.53;;;20.82;39.18
37066;BME280;22981;43.080;25.550;2023-10-19T10:44:41;99270.20;;;20.84;39.24
37066;BME280;22981;43.080;25.550;2023-10-19T10:49:59;99258.80;;;21.04;38.70
37066;BME280;22981;43.080;25.550;2023-10-19T10:52:35;99252.84;;;21.20;38.38
37066;BME280;22981;43.080;25.550;2023-10-19T10:55:11;99252.97;;;21.32;38.17
37066;BME280;22981;43.080;25.550;2023-10-19T10:57:41;99248.61;;;21.33;37.94
37066;BME280;22981;43.080;25.550;2023-10-19T11:00:12;99244.77;;;21.34;37.80
37066;BME280;22981;43.080;25.550;2023-10-19T11:02:47;99240.98;;;21.49;37.78
37066;BME280;22981;43.080;25.550;2023-10-19T11:05:16;99231.34;;;21.57;37.75
37066;BME280;22981;43.080;25.550;2023-10-19T11:08:07;99233.41;;;21.62;37.71
37066;BME280;22981;43.080;25.550;2023-10-19T11:10:44;99233.29;;;21.70;37.49
37066;BME280;22981;43.080;25.550;2023-10-19T11:13:17;99227.16;;;21.78;37.35
37066;BME280;22981;43.080;25.550;2023-10-19T11:15:52;99224.68;;;21.79;37.12
37066;BME280;22981;43.080;25.550;2023-10-19T11:18:33;99219.07;;;21.89;37.23
37066;BME280;22981;43.080;25.550;2023-10-19T11:21:15;99216.24;;;21.94;37.03
37066;BME280;22981;43.080;25.550;2023-10-19T11:23:48;99219.12;;;22.00;37.06
37066;BME280;22981;43.080;25.550;2023-10-19T11:26:25;99212.27;;;22.03;36.95
37066;BME280;22981;43.080;25.550;2023-10-19T11:28:59;99202.06;;;22.09;36.74
37066;BME280;22981;43.080;25.550;2023-10-19T11:31:27;99202.94;;;22.07;36.59
37066;BME280;22981;43.080;25.550;2023-10-19T11:33:56;99198.60;;;22.06;36.71
37066;BME280;22981;43.080;25.550;2023-10-19T11:36:26;99201.19;;;22.13;36.50
37066;BME280;22981;43.080;25.550;2023-10-19T11:38:54;99205.48;;;22.17;36.41
37066;BME280;22981;43.080;25.550;2023-10-19T11:41:21;99204.20;;;22.12;36.34
37066;BME280;22981;43.080;25.550;2023-10-19T11:43:50;99196.33;;;22.10;36.44
37066;BME280;22981;43.080;25.550;2023-10-19T11:46:18;99194.41;;;22.11;36.47
37066;BME280;22981;43.080;25.550;2023-10-19T11:48:47;99192.97;;;22.16;36.55
37066;BME280;22981;43.080;25.550;2023-10-19T11:51:14;99192.76;;;22.26;36.28
37066;BME280;22981;43.080;25.550;2023-10-19T11:53:42;99187.09;;;22.22;36.28
37066;BME280;22981;43.080;25.550;2023-10-19T11:56:12;99184.76;;;22.18;36.19
37066;BME280;22981;43.080;25.550;2023-10-19T11:58:41;99183.39;;;22.18;36.05
37066;BME280;22981;43.080;25.550;2023-10-19T12:01:11;99182.17;;;22.24;36.01
37066;BME280;22981;43.080;25.550;2023-10-19T12:03:42;99178.08;;;22.24;35.99
37066;BME280;22981;43.080;25.550;2023-10-19T12:06:12;99177.31;;;22.21;35.79
37066;BME280;22981;43.080;25.550;2023-10-19T12:08:41;99172.73;;;22.19;35.87
37066;BME280;22981;43.080;25.550;2023-10-19T12:11:09;99168.92;;;22.18;35.90
37066;BME280;22981;43.080;25.550;2023-10-19T12:13:44;99163.19;;;22.19;35.77
37066;BME280;22981;43.080;25.550;2023-10-19T12:16:13;99155.01;;;22.19;35.67
37066;BME280;22981;43.080;25.550;2023-10-19T12:18:44;99152.84;;;22.19;35.63
37066;BME280;22981;43.080;25.550;2023-10-19T12:21:14;99149.91;;;22.15;35.63
37066;BME280;22981;43.080;25.550;2023-10-19T12:23:42;99156.17;;;22.16;35.53
37066;BME280;22981;43.080;25.550;2023-10-19T12:26:11;99156.20;;;22.13;35.48
37066;BME280;22981;43.080;25.550;2023-10-19T12:28:39;99162.46;;;22.14;35.48
37066;BME280;22981;43.080;25.550;2023-10-19T12:31:09;99152.64;;;22.15;35.56
37066;BME280;22981;43.080;25.550;2023-10-19T12:33:40;99157.17;;;22.20;35.66
37066;BME280;22981;43.080;25.550;2023-10-19T12:36:08;99148.40;;;22.23;35.66
37066;BME280;22981;43.080;25.550;2023-10-19T12:38:55;99147.77;;;22.26;35.46
37066;BME280;22981;43.080;25.550;2023-10-19T12:41:24;99138.98;;;22.29;35.14
37066;BME280;22981;43.080;25.550;2023-10-19T12:43:54;99133.73;;;22.33;35.39
37066;BME280;22981;43.080;25.550;2023-10-19T12:46:25;99142.61;;;22.38;34.63
37066;BME280;22981;43.080;25.550;2023-10-19T12:48:53;99139.72;;;22.46;34.01
37066;BME280;22981;43.080;25.550;2023-10-19T12:51:22;99132.50;;;22.53;33.49
37066;BME280;22981;43.080;25.550;2023-10-19T12:53:52;99136.72;;;22.59;32.98
37066;BME280;22981;43.080;25.550;2023-10-19T12:56:20;99131.02;;;22.58;32.58
37066;BME280;22981;43.080;25.550;2023-10-19T12:58:50;99126.36;;;22.58;32.75
37066;BME280;22981;43.080;25.550;2023-10-19T13:01:17;99122.15;;;22.63;32.78
37066;BME280;22981;43.080;25.550;2023-10-19T13:03:46;99119.98;;;22.63;32.52
37066;BME280;22981;43.080;25.550;2023-10-19T13:06:16;99123.39;;;22.57;31.98
37066;BME280;22981;43.080;25.550;2023-10-19T13:08:45;99110.88;;;22.42;32.07
37066;BME280;22981;43.080;25.550;2023-10-19T13:11:13;99112.77;;;22.44;32.30
37066;BME280;22981;43.080;25.550;2023-10-19T13:13:41;99110.77;;;22.47;32.22
37066;BME280;22981;43.080;25.550;2023-10-19T13:16:09;99106.03;;;22.39;32.21
37066;BME280;22981;43.080;25.550;2023-10-19T13:18:39;99103.30;;;22.39;32.29
37066;BME280;22981;43.080;25.550;2023-10-19T13:21:06;99094.87;;;22.38;32.32